createdAt,value
2019-02-17T00:02:04.555Z,2.17
2019-02-17T00:04:33.892Z,2.09
2019-02-17T00:07:03.275Z,1.96
2019-02-17T00:09:34.167Z,1.92
2019-02-17T00:12:03.507Z,1.92
2019-02-17T00:14:32.874Z,1.82
2019-02-17T00:17:03.924Z,1.81
2019-02-17T00:19:33.374Z,1.81
2019-02-17T00:22:02.712Z,1.74
2019-02-17T00:24:32.086Z,1.62
2019-02-17T00:27:01.432Z,1.51
2019-02-17T00:29:30.798Z,1.55
2019-02-17T00:32:00.134Z,1.58
2019-02-17T00:34:29.505Z,1.58
2019-02-17T00:36:58.847Z,1.64
2019-02-17T00:39:28.215Z,1.68
2019-02-17T00:41:57.700Z,1.66
2019-02-17T00:44:27.064Z,1.69
2019-02-17T00:46:56.476Z,1.79
2019-02-17T00:49:26.519Z,1.86
2019-02-17T00:51:55.858Z,1.98
2019-02-17T00:54:25.735Z,2.12
2019-02-17T00:56:55.078Z,2.12
2019-02-17T00:59:24.442Z,2.08
2019-02-17T01:01:53.787Z,2.10
2019-02-17T01:04:23.531Z,2.11
2019-02-17T01:06:52.874Z,2.21
2019-02-17T01:09:22.830Z,2.32
2019-02-17T01:11:52.170Z,2.47
2019-02-17T01:14:21.537Z,2.60
2019-02-17T01:16:50.883Z,2.72
2019-02-17T01:19:20.244Z,2.83
2019-02-17T01:21:49.609Z,2.91
2019-02-17T01:24:18.998Z,3.02
2019-02-17T01:26:48.343Z,3.07
2019-02-17T01:29:20.436Z,3.19
2019-02-17T01:31:48.741Z,3.20
2019-02-17T01:34:18.121Z,3.20
2019-02-17T01:36:47.458Z,3.19
2019-02-17T01:39:16.814Z,3.12
2019-02-17T01:41:46.149Z,2.99
2019-02-17T01:44:15.511Z,2.85
2019-02-17T01:46:44.851Z,2.71
2019-02-17T01:49:14.214Z,2.55
2019-02-17T01:51:43.549Z,2.45
2019-02-17T01:54:12.913Z,2.36
2019-02-17T01:56:42.257Z,2.30
2019-02-17T01:59:11.629Z,2.18
2019-02-17T02:01:40.959Z,2.07
2019-02-17T02:04:10.336Z,2.03
2019-02-17T02:06:39.677Z,1.89
2019-02-17T02:09:09.713Z,1.89
2019-02-17T02:11:39.045Z,1.71
2019-02-17T02:14:08.409Z,1.73
2019-02-17T02:16:38.109Z,1.84
2019-02-17T02:19:07.476Z,1.95
2019-02-17T02:21:36.833Z,1.96
2019-02-17T02:24:06.208Z,1.83
2019-02-17T02:26:35.546Z,1.83
2019-02-17T02:29:04.921Z,1.86
2019-02-17T02:31:34.254Z,1.90
2019-02-17T02:34:03.617Z,1.88
2019-02-17T02:36:32.952Z,1.88
2019-02-17T02:39:02.335Z,1.87
2019-02-17T02:41:34.675Z,1.83
2019-02-17T02:44:02.821Z,1.84
2019-02-17T02:46:32.164Z,1.93
2019-02-17T02:49:01.522Z,2.01
2019-02-17T02:51:30.892Z,1.91
2019-02-17T02:54:00.257Z,1.83
2019-02-17T02:56:29.619Z,1.74
2019-02-17T02:58:58.951Z,1.68
2019-02-17T03:01:28.328Z,1.61
2019-02-17T03:03:57.662Z,1.62
2019-02-17T03:06:28.659Z,1.56
2019-02-17T03:08:58.007Z,1.50
2019-02-17T03:11:27.865Z,1.50
2019-02-17T03:13:57.150Z,1.41
2019-02-17T03:16:26.508Z,1.38
2019-02-17T03:18:55.839Z,1.30
2019-02-17T03:21:25.713Z,1.27
2019-02-17T03:23:55.047Z,1.25
2019-02-17T03:26:24.728Z,1.25
2019-02-17T03:28:54.064Z,1.19
2019-02-17T03:31:23.893Z,1.19
2019-02-17T03:33:53.481Z,1.12
2019-02-17T03:36:22.850Z,1.01
2019-02-17T03:38:52.194Z,1.05
2019-02-17T03:41:21.559Z,1.05
2019-02-17T03:43:50.975Z,1.08
2019-02-17T03:46:21.145Z,1.07
2019-02-17T03:48:50.482Z,1.06
2019-02-17T03:51:19.910Z,1.09
2019-02-17T03:53:49.243Z,1.06
2019-02-17T03:56:18.610Z,1.04
2019-02-17T03:58:47.946Z,0.99
2019-02-17T04:01:17.314Z,0.97
2019-02-17T04:03:46.731Z,1.04
2019-02-17T04:06:16.109Z,1.02
2019-02-17T04:08:45.436Z,1.10
2019-02-17T04:11:14.802Z,1.05
2019-02-17T04:13:44.141Z,1.00
2019-02-17T04:16:13.501Z,1.12
2019-02-17T04:18:42.837Z,1.09
2019-02-17T04:21:12.271Z,1.15
2019-02-17T04:23:41.620Z,1.24
2019-02-17T04:26:11.000Z,1.29
2019-02-17T04:28:40.341Z,1.36
2019-02-17T04:31:09.700Z,1.46
2019-02-17T04:33:39.044Z,1.48
2019-02-17T04:36:08.419Z,1.46
2019-02-17T04:38:37.756Z,1.40
2019-02-17T04:41:07.121Z,1.29
2019-02-17T04:43:36.452Z,1.19
2019-02-17T04:46:05.820Z,1.20
2019-02-17T04:48:35.153Z,1.15
2019-02-17T04:51:04.522Z,1.05
2019-02-17T04:53:33.850Z,1.06
2019-02-17T04:56:03.233Z,1.05
2019-02-17T04:58:32.580Z,0.95
2019-02-17T05:01:01.932Z,0.91
2019-02-17T05:03:31.317Z,0.95
2019-02-17T05:06:00.686Z,0.98
2019-02-17T05:08:30.013Z,1.08
2019-02-17T05:10:59.457Z,1.12
2019-02-17T05:13:28.827Z,1.09
2019-02-17T05:15:58.168Z,1.11
2019-02-17T05:18:27.504Z,1.15
2019-02-17T05:20:56.841Z,1.19
2019-02-17T05:23:26.201Z,1.20
2019-02-17T05:25:55.541Z,1.23
2019-02-17T05:28:24.907Z,1.28
2019-02-17T05:30:54.242Z,1.24
2019-02-17T05:33:23.614Z,1.31
2019-02-17T05:35:53.497Z,1.39
2019-02-17T05:38:22.891Z,1.39
2019-02-17T05:40:52.199Z,1.38
2019-02-17T05:43:21.576Z,1.26
2019-02-17T05:45:50.907Z,1.22
2019-02-17T05:48:20.272Z,1.11
2019-02-17T05:50:49.876Z,0.97
2019-02-17T05:53:19.408Z,0.88
2019-02-17T05:55:49.611Z,0.95
2019-02-17T05:58:18.992Z,0.96
2019-02-17T06:00:48.401Z,1.04
2019-02-17T06:03:17.779Z,0.97
2019-02-17T06:05:47.179Z,0.98
2019-02-17T06:08:16.550Z,0.93
2019-02-17T06:10:45.881Z,0.91
2019-02-17T06:13:15.268Z,0.95
2019-02-17T06:15:44.590Z,0.85
2019-02-17T06:18:14.019Z,0.79
2019-02-17T06:20:43.344Z,0.75
2019-02-17T06:23:13.376Z,0.85
2019-02-17T06:25:42.716Z,0.82
2019-02-17T06:28:12.074Z,0.85
2019-02-17T06:30:41.416Z,0.87
2019-02-17T06:33:10.778Z,0.85
2019-02-17T06:35:40.152Z,0.86
2019-02-17T06:38:09.509Z,0.88
2019-02-17T06:40:38.847Z,0.87
2019-02-17T06:43:08.205Z,0.96
2019-02-17T06:45:37.538Z,1.05
2019-02-17T06:48:06.907Z,1.10
2019-02-17T06:50:36.244Z,1.18
2019-02-17T06:53:05.597Z,1.32
2019-02-17T06:55:45.429Z,1.38
2019-02-17T06:58:14.793Z,1.49
2019-02-17T07:00:45.075Z,1.47
2019-02-17T07:03:14.583Z,1.52
2019-02-17T07:05:45.582Z,1.56
2019-02-17T07:08:15.029Z,1.65
2019-02-17T07:10:44.344Z,1.77
2019-02-17T07:13:13.782Z,1.88
2019-02-17T07:15:43.134Z,2.01
2019-02-17T07:18:12.501Z,2.10
2019-02-17T07:20:41.843Z,2.17
2019-02-17T07:23:11.233Z,2.31
2019-02-17T07:25:40.534Z,2.44
2019-02-17T07:28:09.902Z,2.56
2019-02-17T07:30:39.238Z,2.68
2019-02-17T07:33:08.640Z,2.79
2019-02-17T07:35:37.947Z,2.98
2019-02-17T07:38:07.310Z,3.04
2019-02-17T07:40:36.642Z,3.17
2019-02-17T07:43:06.026Z,3.30
2019-02-17T07:45:35.371Z,3.48
2019-02-17T07:48:04.754Z,3.49
2019-02-17T07:50:34.110Z,3.60
2019-02-17T07:53:03.447Z,3.84
2019-02-17T07:55:32.818Z,3.93
2019-02-17T07:58:02.140Z,4.05
2019-02-17T08:00:31.502Z,4.17
2019-02-17T08:03:00.833Z,4.25
2019-02-17T08:05:30.194Z,4.31
2019-02-17T08:07:59.527Z,4.38
2019-02-17T08:10:28.893Z,4.67
2019-02-17T08:12:58.223Z,4.93
2019-02-17T08:15:27.617Z,5.05
2019-02-17T08:17:56.934Z,5.18
2019-02-17T08:20:26.450Z,5.35
2019-02-17T08:22:55.782Z,5.46
2019-02-17T08:25:25.638Z,5.56
2019-02-17T08:27:54.964Z,5.64
2019-02-17T08:30:24.323Z,5.79
2019-02-17T08:32:53.648Z,6.04
2019-02-17T08:35:23.479Z,6.19
2019-02-17T08:37:52.821Z,6.33
2019-02-17T08:40:22.665Z,6.59
2019-02-17T08:42:51.990Z,6.70
2019-02-17T08:45:21.365Z,6.86
2019-02-17T08:47:50.698Z,7.04
2019-02-17T08:50:20.281Z,7.26
2019-02-17T08:52:49.570Z,7.33
2019-02-17T08:55:18.941Z,7.58
2019-02-17T08:57:48.278Z,7.71
2019-02-17T09:00:17.639Z,8.02
2019-02-17T09:02:46.975Z,8.23
2019-02-17T09:05:16.328Z,8.53
2019-02-17T09:07:45.667Z,8.60
2019-02-17T09:10:15.033Z,8.95
2019-02-17T09:12:44.373Z,9.26
2019-02-17T09:15:13.731Z,9.67
2019-02-17T09:17:43.073Z,9.82
2019-02-17T09:20:12.440Z,10.24
2019-02-17T09:22:41.774Z,10.43
2019-02-17T09:25:11.813Z,10.42
2019-02-17T09:27:41.184Z,10.72
2019-02-17T09:30:15.393Z,11.05
2019-02-17T09:32:44.737Z,11.43
2019-02-17T09:35:14.111Z,11.80
2019-02-17T09:37:43.458Z,12.44
2019-02-17T09:40:13.167Z,12.66
2019-02-17T09:42:42.510Z,12.71
2019-02-17T09:45:13.818Z,13.05
2019-02-17T09:47:43.158Z,14.12
2019-02-17T09:50:15.369Z,14.38
2019-02-17T09:52:44.727Z,14.09
2019-02-17T09:55:14.090Z,14.38
2019-02-17T09:57:43.435Z,14.70
2019-02-17T10:00:15.010Z,15.30
2019-02-17T10:02:44.354Z,14.98
2019-02-17T10:05:13.785Z,16.01
2019-02-17T10:07:43.129Z,16.37
2019-02-17T10:10:14.433Z,16.68
2019-02-17T10:12:43.771Z,16.82
2019-02-17T10:15:13.685Z,16.89
2019-02-17T10:17:43.022Z,16.95
2019-02-17T10:20:15.864Z,16.49
2019-02-17T10:22:45.193Z,16.74
2019-02-17T10:25:14.569Z,16.86
2019-02-17T10:27:43.934Z,16.66
2019-02-17T10:30:14.735Z,16.28
2019-02-17T10:32:44.101Z,16.49
2019-02-17T10:35:13.493Z,15.78
2019-02-17T10:37:42.864Z,15.55
2019-02-17T10:40:14.797Z,15.20
2019-02-17T10:42:44.244Z,15.15
2019-02-17T10:45:13.701Z,15.01
2019-02-17T10:47:43.053Z,15.31
2019-02-17T10:50:12.827Z,15.36
2019-02-17T10:52:42.281Z,15.70
2019-02-17T10:55:12.959Z,15.71
2019-02-17T10:57:42.343Z,16.38
2019-02-17T11:00:14.792Z,16.77
2019-02-17T11:02:47.183Z,17.56
2019-02-17T11:05:15.351Z,17.76
2019-02-17T11:07:44.712Z,18.25
2019-02-17T11:10:14.394Z,18.45
2019-02-17T11:12:43.764Z,18.75
2019-02-17T11:15:20.075Z,19.03
2019-02-17T11:17:49.438Z,19.34
2019-02-17T11:20:18.789Z,19.07
2019-02-17T11:22:48.152Z,19.32
2019-02-17T11:25:17.498Z,19.33
2019-02-17T11:27:46.867Z,19.77
2019-02-17T11:30:20.822Z,19.99
2019-02-17T11:32:57.739Z,19.85
2019-02-17T11:35:21.222Z,19.87
2019-02-17T11:37:50.840Z,20.08
2019-02-17T11:40:20.178Z,19.74
2019-02-17T11:42:49.549Z,20.03
2019-02-17T11:45:19.334Z,20.21
2019-02-17T11:47:48.698Z,20.20
2019-02-17T11:50:18.050Z,20.44
2019-02-17T11:52:47.415Z,19.96
2019-02-17T11:55:16.754Z,19.51
2019-02-17T11:57:46.119Z,20.26
2019-02-17T12:00:22.179Z,20.18
2019-02-17T12:02:51.543Z,20.60
2019-02-17T12:05:20.889Z,21.39
2019-02-17T12:07:50.261Z,21.38
2019-02-17T12:10:19.607Z,21.22
2019-02-17T12:12:48.978Z,21.18
2019-02-17T12:15:18.316Z,21.14
2019-02-17T12:17:47.684Z,21.86
2019-02-17T12:20:32.066Z,22.07
2019-02-17T12:23:03.071Z,22.57
2019-02-17T12:25:34.047Z,22.65
2019-02-17T12:28:05.059Z,22.24
2019-02-17T12:30:34.389Z,22.51
2019-02-17T12:33:03.757Z,23.04
2019-02-17T12:35:33.095Z,23.44
2019-02-17T12:38:02.455Z,23.48
2019-02-17T12:40:31.797Z,23.46
2019-02-17T12:43:01.163Z,22.48
2019-02-17T12:45:30.507Z,22.34
2019-02-17T12:47:59.881Z,22.27
2019-02-17T12:50:29.227Z,22.01
2019-02-17T12:52:58.603Z,22.05
2019-02-17T12:55:27.944Z,22.19
2019-02-17T12:57:57.783Z,22.37
2019-02-17T13:00:27.151Z,22.10
2019-02-17T13:02:56.529Z,22.46
2019-02-17T13:05:25.917Z,22.66
2019-02-17T13:07:55.255Z,22.48
2019-02-17T13:10:24.642Z,22.27
2019-02-17T13:12:53.991Z,21.76
2019-02-17T13:15:23.907Z,21.73
2019-02-17T13:17:53.421Z,21.35
2019-02-17T13:20:22.790Z,21.67
2019-02-17T13:22:52.139Z,22.54
2019-02-17T13:25:21.509Z,23.22
2019-02-17T13:27:50.852Z,23.43
2019-02-17T13:30:22.633Z,23.85
2019-02-17T13:32:51.964Z,23.10
2019-02-17T13:35:21.322Z,23.18
2019-02-17T13:37:50.661Z,23.56
2019-02-17T13:40:20.102Z,24.11
2019-02-17T13:42:49.443Z,23.91
2019-02-17T13:45:18.815Z,23.37
2019-02-17T13:47:48.154Z,22.86
2019-02-17T13:50:17.700Z,22.49
2019-02-17T13:52:47.043Z,21.74
2019-02-17T13:55:16.416Z,20.80
2019-02-17T13:57:46.052Z,20.17
2019-02-17T14:00:19.811Z,19.50
2019-02-17T14:02:49.157Z,18.54
2019-02-17T14:05:18.522Z,18.18
2019-02-17T14:07:47.867Z,18.29
2019-02-17T14:10:17.234Z,18.11
2019-02-17T14:12:46.572Z,17.95
2019-02-17T14:15:19.588Z,18.27
2019-02-17T14:17:48.936Z,17.56
2019-02-17T14:20:18.311Z,17.59
2019-02-17T14:22:47.650Z,17.45
2019-02-17T14:25:17.040Z,16.96
2019-02-17T14:27:46.368Z,16.25
2019-02-17T14:30:16.784Z,15.91
2019-02-17T14:32:46.123Z,15.60
2019-02-17T14:35:15.490Z,15.40
2019-02-17T14:37:44.833Z,15.27
2019-02-17T14:40:14.535Z,15.06
2019-02-17T14:42:43.881Z,15.05
2019-02-17T14:45:17.059Z,14.94
2019-02-17T14:47:46.415Z,14.93
2019-02-17T14:50:15.787Z,14.87
2019-02-17T14:52:45.130Z,14.95
2019-02-17T14:55:14.502Z,14.76
2019-02-17T14:57:43.842Z,14.54
2019-02-17T15:00:14.665Z,14.42
2019-02-17T15:02:43.993Z,14.27
2019-02-17T15:05:13.362Z,14.07
2019-02-17T15:07:42.708Z,13.89
2019-02-17T15:10:13.203Z,13.68
2019-02-17T15:12:42.547Z,13.54
2019-02-17T15:15:13.259Z,13.49
2019-02-17T15:17:42.594Z,13.34
2019-02-17T15:20:23.721Z,13.17
2019-02-17T15:22:53.061Z,12.98
2019-02-17T15:25:22.623Z,12.80
2019-02-17T15:27:51.971Z,12.64
2019-02-17T15:30:21.401Z,12.51
2019-02-17T15:32:50.767Z,12.38
2019-02-17T15:35:22.332Z,12.29
2019-02-17T15:37:51.141Z,12.10
2019-02-17T15:40:20.814Z,11.97
2019-02-17T15:42:50.145Z,11.92
2019-02-17T15:45:19.525Z,11.89
2019-02-17T15:47:48.873Z,11.81
2019-02-17T15:50:18.243Z,11.59
2019-02-17T15:52:47.602Z,11.59
2019-02-17T15:55:16.938Z,11.52
2019-02-17T15:57:46.309Z,11.12
2019-02-17T16:00:17.755Z,10.93
2019-02-17T16:02:47.116Z,10.72
2019-02-17T16:05:16.468Z,10.48
2019-02-17T16:07:45.825Z,10.35
2019-02-17T16:10:16.401Z,10.14
2019-02-17T16:12:45.767Z,9.95
2019-02-17T16:15:20.880Z,9.92
2019-02-17T16:17:50.244Z,9.67
2019-02-17T16:20:19.580Z,9.40
2019-02-17T16:22:48.944Z,9.17
2019-02-17T16:25:18.277Z,8.96
2019-02-17T16:27:47.647Z,8.88
2019-02-17T16:30:23.431Z,8.85
2019-02-17T16:32:52.799Z,8.79
2019-02-17T16:35:22.139Z,8.63
2019-02-17T16:37:51.579Z,8.53
2019-02-17T16:40:20.917Z,8.50
2019-02-17T16:42:50.284Z,8.48
2019-02-17T16:45:19.617Z,8.50
2019-02-17T16:47:49.151Z,8.39
2019-02-17T16:50:23.635Z,8.19
2019-02-17T16:52:53.338Z,8.07
2019-02-17T16:55:22.681Z,7.91
2019-02-17T16:57:52.046Z,7.79
2019-02-17T17:00:25.308Z,7.73
2019-02-17T17:02:57.744Z,7.69
2019-02-17T17:05:27.067Z,7.68
2019-02-17T17:07:56.431Z,7.55
2019-02-17T17:10:25.849Z,7.41
2019-02-17T17:12:55.482Z,7.34
2019-02-17T17:15:24.821Z,7.27
2019-02-17T17:17:54.635Z,7.18
2019-02-17T17:20:23.979Z,7.08
2019-02-17T17:22:53.350Z,7.10
2019-02-17T17:25:22.696Z,7.00
2019-02-17T17:27:52.439Z,6.87
2019-02-17T17:30:21.768Z,6.82
2019-02-17T17:32:51.136Z,6.72
2019-02-17T17:35:20.792Z,6.67
2019-02-17T17:37:50.158Z,6.63
2019-02-17T17:40:19.512Z,6.57
2019-02-17T17:42:48.873Z,6.42
2019-02-17T17:45:21.991Z,6.39
2019-02-17T17:47:51.382Z,6.42
2019-02-17T17:50:20.785Z,6.30
2019-02-17T17:52:50.156Z,6.23
2019-02-17T17:55:19.519Z,6.25
2019-02-17T17:57:48.890Z,6.32
2019-02-17T18:00:20.731Z,6.27
2019-02-17T18:02:50.091Z,6.24
2019-02-17T18:05:19.455Z,6.15
2019-02-17T18:07:48.827Z,6.10
2019-02-17T18:10:18.207Z,5.94
2019-02-17T18:12:47.594Z,5.95
2019-02-17T18:15:18.295Z,5.89
2019-02-17T18:17:54.648Z,5.79
2019-02-17T18:20:18.786Z,5.71
2019-02-17T18:22:48.150Z,5.69
2019-02-17T18:25:17.532Z,5.57
2019-02-17T18:27:46.910Z,5.45
2019-02-17T18:30:22.642Z,5.38
2019-02-17T18:32:52.045Z,5.40
2019-02-17T18:35:21.385Z,5.36
2019-02-17T18:37:50.838Z,5.35
2019-02-17T18:40:20.586Z,5.30
2019-02-17T18:42:49.936Z,5.28
2019-02-17T18:45:19.318Z,5.20
2019-02-17T18:47:48.651Z,5.18
2019-02-17T18:50:18.856Z,5.25
2019-02-17T18:52:48.208Z,5.18
2019-02-17T18:55:17.578Z,5.10
2019-02-17T18:57:50.864Z,5.05
2019-02-17T19:00:25.590Z,5.02
2019-02-17T19:02:54.938Z,5.03
2019-02-17T19:05:32.045Z,4.95
2019-02-17T19:07:56.833Z,4.92
2019-02-17T19:10:26.215Z,5.01
2019-02-17T19:12:55.568Z,4.89
2019-02-17T19:15:24.946Z,4.87
2019-02-17T19:17:54.284Z,4.83
2019-02-17T19:20:31.458Z,4.75
2019-02-17T19:23:01.485Z,4.82
2019-02-17T19:25:30.864Z,4.70
2019-02-17T19:28:00.211Z,4.71
2019-02-17T19:30:29.592Z,4.64
2019-02-17T19:32:58.947Z,4.64
2019-02-17T19:35:28.322Z,4.70
2019-02-17T19:37:57.669Z,4.84
2019-02-17T19:40:29.891Z,4.95
2019-02-17T19:42:59.237Z,4.93
2019-02-17T19:45:28.616Z,4.87
2019-02-17T19:47:57.954Z,4.85
2019-02-17T19:50:27.602Z,4.81
2019-02-17T19:52:56.949Z,4.69
2019-02-17T19:55:26.322Z,4.55
2019-02-17T19:57:55.674Z,4.46
2019-02-17T20:00:26.094Z,4.31
2019-02-17T20:03:01.605Z,4.29
2019-02-17T20:05:32.614Z,4.28
2019-02-17T20:08:01.967Z,4.10
2019-02-17T20:10:31.345Z,4.07
2019-02-17T20:13:02.325Z,4.08
2019-02-17T20:15:33.354Z,4.13
2019-02-17T20:18:02.706Z,4.18
2019-02-17T20:20:32.079Z,4.08
2019-02-17T20:23:02.709Z,3.90
2019-02-17T20:25:32.089Z,3.74
2019-02-17T20:28:01.446Z,3.63
2019-02-17T20:30:30.802Z,3.60
2019-02-17T20:33:00.166Z,3.62
2019-02-17T20:35:29.523Z,3.66
2019-02-17T20:37:58.867Z,3.68
2019-02-17T20:40:28.241Z,3.64
2019-02-17T20:42:57.587Z,3.57
2019-02-17T20:45:26.953Z,3.50
2019-02-17T20:47:56.298Z,3.44
2019-02-17T20:50:26.088Z,3.42
2019-02-17T20:52:55.439Z,3.35
2019-02-17T20:55:25.168Z,3.35
2019-02-17T20:57:54.543Z,3.35
2019-02-17T21:00:25.713Z,3.38
2019-02-17T21:02:55.144Z,3.34
2019-02-17T21:05:24.591Z,3.41
2019-02-17T21:07:54.195Z,3.39
2019-02-17T21:10:23.927Z,3.42
2019-02-17T21:12:53.303Z,3.45
2019-02-17T21:15:22.921Z,3.44
2019-02-17T21:17:52.288Z,3.42
2019-02-17T21:20:22.406Z,3.42
2019-02-17T21:22:53.073Z,3.34
2019-02-17T21:25:22.600Z,3.24
2019-02-17T21:27:51.975Z,3.26
2019-02-17T21:30:21.322Z,3.22
2019-02-17T21:32:50.696Z,3.14
2019-02-17T21:35:20.055Z,3.22
2019-02-17T21:37:49.428Z,3.33
2019-02-17T21:40:18.943Z,3.34
2019-02-17T21:42:48.315Z,3.36
2019-02-17T21:45:17.666Z,3.35
2019-02-17T21:47:47.035Z,3.37
2019-02-17T21:50:16.384Z,3.38
2019-02-17T21:52:45.761Z,3.43
2019-02-17T21:55:15.287Z,3.35
2019-02-17T21:57:44.670Z,3.39
2019-02-17T22:00:19.918Z,3.50
2019-02-17T22:02:49.319Z,3.50
2019-02-17T22:05:18.831Z,3.46
2019-02-17T22:07:48.198Z,3.35
2019-02-17T22:10:20.890Z,3.39
2019-02-17T22:12:51.257Z,3.31
2019-02-17T22:15:22.314Z,3.31
2019-02-17T22:17:51.698Z,3.24
2019-02-17T22:20:21.044Z,3.25
2019-02-17T22:22:50.493Z,3.31
2019-02-17T22:25:19.842Z,3.35
2019-02-17T22:27:49.219Z,3.45
2019-02-17T22:30:18.577Z,3.45
2019-02-17T22:32:47.959Z,3.53
2019-02-17T22:35:17.330Z,3.51
2019-02-17T22:37:46.701Z,3.42
2019-02-17T22:40:16.218Z,3.42
2019-02-17T22:42:45.590Z,3.42
2019-02-17T22:45:15.104Z,3.37
2019-02-17T22:47:44.475Z,3.35
2019-02-17T22:50:14.465Z,3.28
2019-02-17T22:52:44.974Z,3.19
2019-02-17T22:55:14.602Z,3.19
2019-02-17T22:57:44.035Z,3.14
2019-02-17T23:00:19.481Z,3.13
2019-02-17T23:02:48.856Z,3.12
2019-02-17T23:05:18.191Z,3.13
2019-02-17T23:07:47.577Z,3.09
2019-02-17T23:10:16.919Z,3.11
2019-02-17T23:12:46.286Z,3.03
2019-02-17T23:15:15.633Z,3.01
2019-02-17T23:17:45.001Z,3.07
2019-02-17T23:20:14.347Z,3.04
2019-02-17T23:22:43.718Z,2.99
2019-02-17T23:25:13.058Z,2.80
2019-02-17T23:27:42.426Z,2.71
2019-02-17T23:30:12.139Z,2.59
2019-02-17T23:32:41.526Z,2.53
2019-02-17T23:35:11.466Z,2.42
2019-02-17T23:37:40.844Z,2.29
2019-02-17T23:40:11.256Z,2.20
2019-02-17T23:42:40.600Z,2.16
2019-02-17T23:45:13.707Z,2.16
2019-02-17T23:47:43.060Z,2.12
2019-02-17T23:50:12.152Z,2.12
2019-02-17T23:52:40.778Z,2.20
2019-02-17T23:55:09.893Z,2.19
2019-02-17T23:57:38.661Z,2.10
